Time;durP1;ratioP1;P1;durP2;ratioP2;P2;SDS_P1;SDS_P2;PMS_P1;PMS_P2;Temp;Humidity;BMP_temperature;BMP_pressure;BME280_temperature;BME280_humidity;BME280_pressure;Samples;Min_cycle;Max_cycle;Signal;HPM_P1;HPM_P2
2022/12/13 00:03:42;;;;;;;;;;;;;;;-4.53;90.78516;101420.4;;;;-75
2022/12/13 00:08:42;;;;;;;;;;;;;;;-4.5;90.83398;101412.3;;;;-76
2022/12/13 00:13:42;;;;;;;;;;;;;;;-4.52;90.85156;101415.3;;;;-77
2022/12/13 00:18:43;;;;;;;;;;;;;;;-4.53;91.11523;101408.4;;;;-76
2022/12/13 00:23:42;;;;;;;;;;;;;;;-4.52;91.04297;101404.5;;;;-76
2022/12/13 00:28:42;;;;;;;;;;;;;;;-4.48;91.00977;101402.5;;;;-76
2022/12/13 00:29:40;;;;;;;12.5;4;;;;;;;;;;;;;-76
2022/12/13 00:33:42;;;;;;;;;;;;;;;-4.49;91.19922;101401.4;;;;-76
2022/12/13 00:38:42;;;;;;;;;;;;;;;-4.42;91.18164;101406.4;;;;-76
2022/12/13 00:43:42;;;;;;;;;;;;;;;-4.46;91.1416;101401;;;;-76
2022/12/13 00:48:42;;;;;;;;;;;;;;;-4.45;90.96289;101397.2;;;;-76
2022/12/13 00:53:42;;;;;;;;;;;;;;;-4.46;90.91797;101391.4;;;;-76
2022/12/13 00:58:42;;;;;;;;;;;;;;;-4.51;91.09766;101395.1;;;;-76
2022/12/13 00:59:38;;;;;;;9;4.3;;;;;;;;;;;;;-76
2022/12/13 01:03:42;;;;;;;;;;;;;;;-4.49;90.96387;101392.6;;;;-77
2022/12/13 01:08:43;;;;;;;;;;;;;;;-4.54;90.98535;101389.1;;;;-76
2022/12/13 01:13:42;;;;;;;;;;;;;;;-4.53;90.95605;101384.2;;;;-76
2022/12/13 01:18:43;;;;;;;;;;;;;;;-4.59;90.8252;101382.9;;;;-77
2022/12/13 01:23:42;;;;;;;;;;;;;;;-4.64;90.87891;101381.5;;;;-76
2022/12/13 01:28:43;;;;;;;;;;;;;;;-4.64;90.84766;101385.5;;;;-76
2022/12/13 01:29:36;;;;;;;10.2;4.2;;;;;;;;;;;;;-76
2022/12/13 01:33:43;;;;;;;;;;;;;;;-4.66;90.75781;101385.9;;;;-76
2022/12/13 01:38:42;;;;;;;;;;;;;;;-4.66;90.74707;101386.7;;;;-75
2022/12/13 01:43:56;;;;;;;;;;;;;;;-4.66;90.77734;101390.6;;;;-76
2022/12/13 01:48:43;;;;;;;;;;;;;;;-4.68;90.71191;101392;;;;-76
2022/12/13 01:53:43;;;;;;;;;;;;;;;-4.72;90.76563;101393.5;;;;-77
2022/12/13 01:58:43;;;;;;;;;;;;;;;-4.73;90.4873;101393.2;;;;-75
2022/12/13 01:59:36;;;;;;;7;3.8;;;;;;;;;;;;;-75
2022/12/13 02:03:42;;;;;;;;;;;;;;;-4.75;90.65332;101387.2;;;;-75
2022/12/13 02:08:44;;;;;;;;;;;;;;;-4.79;90.54785;101387.5;;;;-75
2022/12/13 02:13:42;;;;;;;;;;;;;;;-4.79;90.56934;101390.2;;;;-75
2022/12/13 02:18:49;;;;;;;;;;;;;;;-4.88;90.53906;101387.4;;;;-76
2022/12/13 02:24:01;;;;;;;;;;;;;;;-4.86;90.47949;101389.8;;;;-75
2022/12/13 02:28:51;;;;;;;;;;;;;;;-4.9;90.38574;101385.4;;;;-75
2022/12/13 02:29:47;;;;;;;8.7;3.6;;;;;;;;;;;;;-75
2022/12/13 02:33:51;;;;;;;;;;;;;;;-4.94;90.27246;101384.2;;;;-75
2022/12/13 02:38:48;;;;;;;;;;;;;;;-4.97;90.1709;101385.6;;;;-75
2022/12/13 02:43:45;;;;;;;;;;;;;;;-5.03;90.14453;101383.6;;;;-75
2022/12/13 02:48:44;;;;;;;;;;;;;;;-5.08;90.17969;101380.8;;;;-75
2022/12/13 02:53:43;;;;;;;;;;;;;;;-5.11;90.06543;101374.7;;;;-74
2022/12/13 02:58:45;;;;;;;;;;;;;;;-5.13;90.13574;101370.5;;;;-75
2022/12/13 02:59:32;;;;;;;10.8;4;;;;;;;;;;;;;-74
2022/12/13 03:03:46;;;;;;;;;;;;;;;-5.21;89.9375;101364.2;;;;-75
2022/12/13 03:08:48;;;;;;;;;;;;;;;-5.22;90.09668;101364.3;;;;-75
2022/12/13 03:13:47;;;;;;;;;;;;;;;-5.24;89.70801;101362.6;;;;-74
2022/12/13 03:18:42;;;;;;;;;;;;;;;-5.29;89.70703;101356.8;;;;-74
2022/12/13 03:23:42;;;;;;;;;;;;;;;-5.4;89.70703;101358.1;;;;-74
2022/12/13 03:28:42;;;;;;;;;;;;;;;-5.4;89.67578;101360.2;;;;-74
2022/12/13 03:29:29;;;;;;;10.2;3.3;;;;;;;;;;;;;-74
2022/12/13 03:33:42;;;;;;;;;;;;;;;-5.42;89.55273;101357.6;;;;-74
2022/12/13 03:38:43;;;;;;;;;;;;;;;-5.48;89.4248;101356.3;;;;-74
2022/12/13 03:43:42;;;;;;;;;;;;;;;-5.52;89.37207;101354.9;;;;-74
2022/12/13 03:48:42;;;;;;;;;;;;;;;-5.56;89.28809;101360.4;;;;-74
2022/12/13 03:53:43;;;;;;;;;;;;;;;-5.6;89.41895;101357.6;;;;-74
2022/12/13 03:58:42;;;;;;;;;;;;;;;-5.64;89.19824;101355.2;;;;-74
2022/12/13 03:59:27;;;;;;;10.1;3.4;;;;;;;;;;;;;-74
2022/12/13 04:03:42;;;;;;;;;;;;;;;-5.7;89.01563;101354.5;;;;-74
2022/12/13 04:08:42;;;;;;;;;;;;;;;-5.76;89.08887;101351.3;;;;-75
2022/12/13 04:13:42;;;;;;;;;;;;;;;-5.73;89.39355;101342.1;;;;-74
2022/12/13 04:18:42;;;;;;;;;;;;;;;-5.7;88.89844;101338.8;;;;-75
2022/12/13 04:23:42;;;;;;;;;;;;;;;-5.72;88.93848;101335.6;;;;-75
2022/12/13 04:28:42;;;;;;;;;;;;;;;-5.75;89.10059;101336;;;;-74
2022/12/13 04:29:25;;;;;;;6.7;2.9;;;;;;;;;;;;;-74
2022/12/13 04:33:42;;;;;;;;;;;;;;;-5.74;89.01758;101330.8;;;;-73
2022/12/13 04:38:43;;;;;;;;;;;;;;;-5.67;89.11621;101331.1;;;;-74
2022/12/13 04:43:42;;;;;;;;;;;;;;;-5.62;89.11914;101333.4;;;;-74
2022/12/13 04:48:42;;;;;;;;;;;;;;;-5.63;89.04102;101326.8;;;;-75
2022/12/13 04:53:42;;;;;;;;;;;;;;;-5.58;89.10547;101327.8;;;;-74
2022/12/13 04:58:42;;;;;;;;;;;;;;;-5.58;89.03125;101322.4;;;;-74
2022/12/13 04:59:23;;;;;;;8.9;3.4;;;;;;;;;;;;;-74
2022/12/13 05:03:42;;;;;;;;;;;;;;;-5.54;89.2832;101317.2;;;;-74
2022/12/13 05:08:42;;;;;;;;;;;;;;;-5.52;88.96875;101320.3;;;;-74
2022/12/13 05:13:42;;;;;;;;;;;;;;;-5.52;89.20215;101319.2;;;;-75
2022/12/13 05:18:42;;;;;;;;;;;;;;;-5.52;89.22363;101321.8;;;;-74
2022/12/13 05:23:42;;;;;;;;;;;;;;;-5.48;89.06348;101317.5;;;;-74
2022/12/13 05:28:42;;;;;;;;;;;;;;;-5.53;89.14746;101315;;;;-73
2022/12/13 05:29:21;;;;;;;8.6;3.1;;;;;;;;;;;;;-73
2022/12/13 05:33:42;;;;;;;;;;;;;;;-5.5;89.20605;101314.4;;;;-75
2022/12/13 05:38:42;;;;;;;;;;;;;;;-5.48;89.22266;101310.1;;;;-74
2022/12/13 05:43:42;;;;;;;;;;;;;;;-5.5;89.16602;101307.2;;;;-74
2022/12/13 05:48:42;;;;;;;;;;;;;;;-5.49;89.08008;101296.9;;;;-74
2022/12/13 05:53:42;;;;;;;;;;;;;;;-5.5;88.94238;101292.6;;;;-73
2022/12/13 05:58:43;;;;;;;;;;;;;;;-5.49;88.94434;101289.2;;;;-75
2022/12/13 05:59:22;;;;;;;8.9;3.7;;;;;;;;;;;;;-74
2022/12/13 06:03:42;;;;;;;;;;;;;;;-5.52;89.1084;101290.3;;;;-75
2022/12/13 06:08:42;;;;;;;;;;;;;;;-5.55;88.99414;101292.1;;;;-74
2022/12/13 06:13:42;;;;;;;;;;;;;;;-5.57;89.09668;101302.7;;;;-74
2022/12/13 06:18:42;;;;;;;;;;;;;;;-5.57;89.22461;101311.1;;;;-73
2022/12/13 06:23:42;;;;;;;;;;;;;;;-5.55;89.16504;101314.5;;;;-74
2022/12/13 06:28:42;;;;;;;;;;;;;;;-5.6;89.1748;101315.3;;;;-73
2022/12/13 06:29:19;;;;;;;8.5;3.7;;;;;;;;;;;;;-73
2022/12/13 06:33:42;;;;;;;;;;;;;;;-5.54;89.25195;101315.5;;;;-73
2022/12/13 06:38:42;;;;;;;;;;;;;;;-5.56;89.20508;101309.8;;;;-74
2022/12/13 06:43:44;;;;;;;;;;;;;;;-5.55;89.12207;101309.7;;;;-74
2022/12/13 06:48:43;;;;;;;;;;;;;;;-5.56;89.10742;101307.6;;;;-73
2022/12/13 06:53:44;;;;;;;;;;;;;;;-5.5;89.11035;101315;;;;-74
2022/12/13 06:58:43;;;;;;;;;;;;;;;-5.56;89.10938;101318.9;;;;-74
2022/12/13 06:59:16;;;;;;;8;3.4;;;;;;;;;;;;;-74
2022/12/13 07:03:42;;;;;;;;;;;;;;;-5.52;89.04297;101311.1;;;;-74
2022/12/13 07:08:42;;;;;;;;;;;;;;;-5.55;89.25;101316.1;;;;-74
2022/12/13 07:13:42;;;;;;;;;;;;;;;-5.53;89.24316;101320.5;;;;-75
2022/12/13 07:18:42;;;;;;;;;;;;;;;-5.53;89.00879;101322.1;;;;-75
2022/12/13 07:23:43;;;;;;;;;;;;;;;-5.54;89.03906;101324.8;;;;-75
2022/12/13 07:28:42;;;;;;;;;;;;;;;-5.55;88.99609;101324.4;;;;-74
2022/12/13 07:29:14;;;;;;;9.9;3.4;;;;;;;;;;;;;-74
2022/12/13 07:33:42;;;;;;;;;;;;;;;-5.59;89.09277;101327.3;;;;-74
2022/12/13 07:38:42;;;;;;;;;;;;;;;-5.63;89.10449;101331.5;;;;-74
2022/12/13 07:43:42;;;;;;;;;;;;;;;-5.6;88.91895;101336.3;;;;-74
2022/12/13 07:48:42;;;;;;;;;;;;;;;-5.63;88.81836;101336.1;;;;-74
2022/12/13 07:53:42;;;;;;;;;;;;;;;-5.68;88.80859;101332.6;;;;-76
2022/12/13 07:58:42;;;;;;;;;;;;;;;-5.65;88.98438;101343.7;;;;-73
2022/12/13 07:59:12;;;;;;;9.5;3.4;;;;;;;;;;;;;-73
2022/12/13 08:03:42;;;;;;;;;;;;;;;-5.65;88.93945;101347.5;;;;-74
2022/12/13 08:08:42;;;;;;;;;;;;;;;-5.6;88.96387;101347;;;;-74
2022/12/13 08:13:42;;;;;;;;;;;;;;;-5.62;88.95801;101351.3;;;;-73
2022/12/13 08:18:42;;;;;;;;;;;;;;;-5.64;88.86914;101353.4;;;;-73
2022/12/13 08:23:42;;;;;;;;;;;;;;;-5.63;88.83887;101353;;;;-74
2022/12/13 08:28:42;;;;;;;;;;;;;;;-5.61;88.70508;101357.9;;;;-74
2022/12/13 08:29:10;;;;;;;6.3;3.2;;;;;;;;;;;;;-74
2022/12/13 08:33:45;;;;;;;;;;;;;;;-5.6;88.63281;101357.5;;;;-73
2022/12/13 08:38:42;;;;;;;;;;;;;;;-5.61;88.56738;101363.5;;;;-73
2022/12/13 08:43:42;;;;;;;;;;;;;;;-5.61;88.47168;101364.1;;;;-73
2022/12/13 08:48:42;;;;;;;;;;;;;;;-5.57;88.43848;101356;;;;-73
2022/12/13 08:53:42;;;;;;;;;;;;;;;-5.55;88.35742;101359.4;;;;-74
2022/12/13 08:58:42;;;;;;;;;;;;;;;-5.52;88.68164;101354.9;;;;-74
2022/12/13 08:59:09;;;;;;;6.5;3.2;;;;;;;;;;;;;-74
2022/12/13 09:03:42;;;;;;;;;;;;;;;-5.43;88.54102;101349.4;;;;-74
2022/12/13 09:08:42;;;;;;;;;;;;;;;-5.28;88.61426;101356;;;;-72
2022/12/13 09:13:44;;;;;;;;;;;;;;;-5.05;87.91699;101357.1;;;;-74
2022/12/13 09:18:42;;;;;;;;;;;;;;;-4.91;87.75586;101358.9;;;;-74
2022/12/13 09:23:42;;;;;;;;;;;;;;;-4.76;87.95703;101355.5;;;;-74
2022/12/13 09:28:42;;;;;;;;;;;;;;;-4.53;86.31152;101351.9;;;;-74
2022/12/13 09:29:10;;;;;;;11.1;4.4;;;;;;;;;;;;;-74
2022/12/13 09:33:42;;;;;;;;;;;;;;;-4.39;86.3291;101351.5;;;;-74
2022/12/13 09:38:42;;;;;;;;;;;;;;;-4.22;85.57422;101349.9;;;;-74
2022/12/13 09:43:43;;;;;;;;;;;;;;;-4.12;85.54199;101338.3;;;;-73
2022/12/13 09:48:42;;;;;;;;;;;;;;;-3.96;84.96484;101337.8;;;;-73
2022/12/13 09:53:42;;;;;;;;;;;;;;;-3.92;84.97363;101339.3;;;;-73
2022/12/13 09:58:42;;;;;;;;;;;;;;;-3.9;85.16895;101338.9;;;;-74
2022/12/13 09:59:05;;;;;;;12;4.6;;;;;;;;;;;;;-73
2022/12/13 10:03:43;;;;;;;;;;;;;;;-3.88;85.56836;101339.5;;;;-72
2022/12/13 10:08:44;;;;;;;;;;;;;;;-3.85;85.7998;101328.7;;;;-72
2022/12/13 10:13:44;;;;;;;;;;;;;;;-3.79;86.06738;101327.7;;;;-71
2022/12/13 10:18:43;;;;;;;;;;;;;;;-3.74;86.25781;101327.2;;;;-72
2022/12/13 10:23:42;;;;;;;;;;;;;;;-3.69;86.4502;101330.5;;;;-71
2022/12/13 10:28:42;;;;;;;;;;;;;;;-3.62;86.37988;101325.9;;;;-73
2022/12/13 10:29:09;;;;;;;11.1;4.9;;;;;;;;;;;;;-73
2022/12/13 10:33:45;;;;;;;;;;;;;;;-3.47;86.19824;101310.5;;;;-72
2022/12/13 10:38:44;;;;;;;;;;;;;;;-3.32;85.78906;101311.4;;;;-74
2022/12/13 10:43:43;;;;;;;;;;;;;;;-3.25;85.75;101308.8;;;;-74
2022/12/13 10:48:49;;;;;;;;;;;;;;;-3.29;86.16895;101305.1;;;;-73
2022/12/13 10:53:43;;;;;;;;;;;;;;;-3.29;86.4375;101307.6;;;;-73
2022/12/13 10:58:43;;;;;;;;;;;;;;;-3.31;86.66797;101298.7;;;;-74
2022/12/13 10:59:13;;;;;;;14.3;5.8;;;;;;;;;;;;;-74
2022/12/13 11:03:42;;;;;;;;;;;;;;;-3.28;86.89746;101291.9;;;;-75
2022/12/13 11:08:42;;;;;;;;;;;;;;;-3.3;87.09863;101294.7;;;;-74
2022/12/13 11:13:44;;;;;;;;;;;;;;;-3.29;87.35547;101291;;;;-74
2022/12/13 11:18:42;;;;;;;;;;;;;;;-3.26;87.76855;101300.5;;;;-73
2022/12/13 11:23:46;;;;;;;;;;;;;;;-3.25;87.86523;101296.9;;;;-74
2022/12/13 11:28:59;;;;;;;;;;;;;;;-3.22;87.8623;101286;;;;-73
2022/12/13 11:29:20;;;;;;;13.4;6.1;;;;;;;;;;;;;-73
2022/12/13 11:33:48;;;;;;;;;;;;;;;-3.19;87.99609;101278.8;;;;-73
2022/12/13 11:38:52;;;;;;;;;;;;;;;-3.15;88.14453;101273.3;;;;-75
2022/12/13 11:43:45;;;;;;;;;;;;;;;-3.13;88.48145;101265.2;;;;-76
2022/12/13 11:48:45;;;;;;;;;;;;;;;-3.07;88.48047;101269.7;;;;-76
2022/12/13 11:53:46;;;;;;;;;;;;;;;-3;88.5166;101266.3;;;;-73
2022/12/13 11:58:46;;;;;;;;;;;;;;;-2.93;88.24512;101258.6;;;;-74
2022/12/13 11:59:11;;;;;;;15.4;6.8;;;;;;;;;;;;;-74
2022/12/13 12:03:44;;;;;;;;;;;;;;;-2.87;88.39355;101254.4;;;;-75
2022/12/13 12:08:45;;;;;;;;;;;;;;;-2.83;88.36035;101250.3;;;;-75
2022/12/13 12:13:45;;;;;;;;;;;;;;;-2.75;88.52539;101246.2;;;;-74
2022/12/13 12:18:42;;;;;;;;;;;;;;;-2.73;88.28516;101240.5;;;;-76
2022/12/13 12:23:49;;;;;;;;;;;;;;;-2.67;88.39258;101238.4;;;;-74
2022/12/13 12:28:50;;;;;;;;;;;;;;;-2.64;88.52832;101245.2;;;;-74
2022/12/13 12:29:13;;;;;;;16.6;7.3;;;;;;;;;;;;;-74
2022/12/13 12:33:48;;;;;;;;;;;;;;;-2.61;88.60938;101249.3;;;;-75
2022/12/13 12:38:53;;;;;;;;;;;;;;;-2.6;88.72852;101248.7;;;;-75
2022/12/13 12:43:43;;;;;;;;;;;;;;;-2.57;88.79883;101242.5;;;;-74
2022/12/13 12:48:52;;;;;;;;;;;;;;;-2.52;88.9043;101242.6;;;;-75
2022/12/13 12:53:45;;;;;;;;;;;;;;;-2.49;88.64453;101240.9;;;;-76
2022/12/13 12:58:46;;;;;;;;;;;;;;;-2.45;88.64355;101233.1;;;;-76
2022/12/13 12:58:59;;;;;;;17.7;7.6;;;;;;;;;;;;;-76
2022/12/13 13:03:44;;;;;;;;;;;;;;;-2.44;88.6543;101225.2;;;;-75
2022/12/13 13:08:44;;;;;;;;;;;;;;;-2.44;88.79492;101226;;;;-75
2022/12/13 13:13:49;;;;;;;;;;;;;;;-2.45;88.79297;101219;;;;-76
2022/12/13 13:18:54;;;;;;;;;;;;;;;-2.46;88.83398;101212;;;;-74
2022/12/13 13:23:42;;;;;;;;;;;;;;;-2.47;89.00098;101214.8;;;;-75
2022/12/13 13:28:42;;;;;;;;;;;;;;;-2.47;89.06543;101208.3;;;;-75
2022/12/13 13:28:54;;;;;;;19.5;8.4;;;;;;;;;;;;;-76
2022/12/13 13:33:56;;;;;;;;;;;;;;;-2.48;89.23535;101202.5;;;;-76
2022/12/13 13:38:56;;;;;;;;;;;;;;;-2.49;89.30957;101199.1;;;;-73
2022/12/13 13:43:42;;;;;;;;;;;;;;;-2.47;89.39746;101195.1;;;;-74
2022/12/13 13:48:59;;;;;;;;;;;;;;;-2.45;89.37109;101190.4;;;;-75
2022/12/13 13:53:58;;;;;;;;;;;;;;;-2.43;89.33203;101186.9;;;;-75
2022/12/13 13:58:57;;;;;;;;;;;;;;;-2.43;89.375;101182;;;;-74
2022/12/13 13:59:26;;;;;;;19.9;7.9;;;;;;;;;;;;;-74
2022/12/13 14:04:06;;;;;;;;;;;;;;;-2.42;89.37695;101179.5;;;;-76
2022/12/13 14:08:45;;;;;;;;;;;;;;;-2.45;89.56348;101169;;;;-76
2022/12/13 14:13:59;;;;;;;;;;;;;;;-2.48;89.63086;101164.8;;;;-76
2022/12/13 14:19:10;;;;;;;;;;;;;;;-2.52;89.85645;101168.1;;;;-77
2022/12/13 14:23:51;;;;;;;;;;;;;;;-2.58;89.98438;101167.6;;;;-73
2022/12/13 14:28:46;;;;;;;;;;;;;;;-2.62;90.0918;101157.7;;;;-74
2022/12/13 14:28:57;;;;;;;18.3;8;;;;;;;;;;;;;-74
2022/12/13 14:33:46;;;;;;;;;;;;;;;-2.74;90.59082;101146.5;;;;-74
2022/12/13 14:38:42;;;;;;;;;;;;;;;-2.83;90.94922;101139.3;;;;-74
2022/12/13 14:43:42;;;;;;;;;;;;;;;-2.87;91.0791;101147.6;;;;-75
2022/12/13 14:48:47;;;;;;;;;;;;;;;-2.91;91.16504;101137.1;;;;-74
2022/12/13 14:53:42;;;;;;;;;;;;;;;-2.94;91.14844;101128.9;;;;-76
2022/12/13 14:58:42;;;;;;;;;;;;;;;-2.95;91.23047;101132.6;;;;-76
2022/12/13 14:58:59;;;;;;;17.5;7.4;;;;;;;;;;;;;-76
2022/12/13 15:03:42;;;;;;;;;;;;;;;-2.99;91.25391;101133.2;;;;-74
2022/12/13 15:08:43;;;;;;;;;;;;;;;-3;91.45508;101128.7;;;;-74
2022/12/13 15:13:42;;;;;;;;;;;;;;;-3.04;91.4668;101116.4;;;;-75
2022/12/13 15:18:42;;;;;;;;;;;;;;;-3.03;91.375;101112.9;;;;-74
2022/12/13 15:23:43;;;;;;;;;;;;;;;-3.08;91.46973;101109.6;;;;-74
2022/12/13 15:28:43;;;;;;;;;;;;;;;-3.11;91.44238;101099.8;;;;-73
2022/12/13 15:28:56;;;;;;;17.6;7;;;;;;;;;;;;;-73
2022/12/13 15:33:42;;;;;;;;;;;;;;;-3.11;91.41016;101094.3;;;;-74
2022/12/13 15:38:43;;;;;;;;;;;;;;;-3.14;91.52051;101093.6;;;;-75
2022/12/13 15:43:46;;;;;;;;;;;;;;;-3.15;91.45605;101094.3;;;;-75
2022/12/13 15:48:45;;;;;;;;;;;;;;;-3.18;91.52344;101098.9;;;;-74
2022/12/13 15:53:42;;;;;;;;;;;;;;;-3.2;91.50879;101092.2;;;;-75
2022/12/13 15:58:42;;;;;;;;;;;;;;;-3.2;91.55078;101095.5;;;;-74
2022/12/13 15:58:55;;;;;;;14.6;6.6;;;;;;;;;;;;;-74
2022/12/13 16:03:45;;;;;;;;;;;;;;;-3.2;91.54004;101099.7;;;;-75
2022/12/13 16:08:48;;;;;;;;;;;;;;;-3.22;91.49414;101097.7;;;;-75
2022/12/13 16:13:42;;;;;;;;;;;;;;;-3.19;91.46777;101093.3;;;;-75
2022/12/13 16:18:48;;;;;;;;;;;;;;;-3.23;91.5127;101091.3;;;;-75
2022/12/13 16:23:42;;;;;;;;;;;;;;;-3.22;91.53613;101092.7;;;;-74
2022/12/13 16:28:45;;;;;;;;;;;;;;;-3.24;91.52148;101086.5;;;;-76
2022/12/13 16:28:56;;;;;;;17.2;7.4;;;;;;;;;;;;;-76
2022/12/13 16:33:42;;;;;;;;;;;;;;;-3.25;91.53027;101081.1;;;;-75
2022/12/13 16:38:44;;;;;;;;;;;;;;;-3.25;91.3916;101073.7;;;;-74
2022/12/13 16:43:43;;;;;;;;;;;;;;;-3.26;91.46484;101072.2;;;;-73
2022/12/13 16:48:42;;;;;;;;;;;;;;;-3.27;91.50391;101070.8;;;;-75
2022/12/13 16:53:42;;;;;;;;;;;;;;;-3.27;91.48242;101077.1;;;;-76
2022/12/13 16:58:42;;;;;;;;;;;;;;;-3.32;91.55762;101075.5;;;;-76
2022/12/13 16:58:58;;;;;;;17.7;7.2;;;;;;;;;;;;;-76
2022/12/13 17:03:42;;;;;;;;;;;;;;;-3.32;91.54688;101076.1;;;;-76
2022/12/13 17:08:42;;;;;;;;;;;;;;;-3.34;91.54297;101072.5;;;;-75
2022/12/13 17:13:43;;;;;;;;;;;;;;;-3.34;91.60547;101069.5;;;;-75
2022/12/13 17:18:42;;;;;;;;;;;;;;;-3.34;91.5625;101062.6;;;;-75
2022/12/13 17:23:42;;;;;;;;;;;;;;;-3.37;91.57813;101055.9;;;;-74
2022/12/13 17:28:41;;;;;;;15.3;6.5;;;;;;;;;;;;;-76
2022/12/13 17:28:50;;;;;;;;;;;;;;;-3.38;91.62891;101056.2;;;;-75
2022/12/13 17:33:42;;;;;;;;;;;;;;;-3.35;91.50879;101054.1;;;;-74
2022/12/13 17:38:44;;;;;;;;;;;;;;;-3.39;91.53125;101052.4;;;;-74
2022/12/13 17:43:42;;;;;;;;;;;;;;;-3.37;91.53516;101052.9;;;;-75
2022/12/13 17:48:42;;;;;;;;;;;;;;;-3.38;91.51172;101056.1;;;;-75
2022/12/13 17:53:42;;;;;;;;;;;;;;;-3.39;91.58496;101062.7;;;;-75
2022/12/13 17:58:39;;;;;;;15.6;6.8;;;;;;;;;;;;;-75
2022/12/13 17:58:48;;;;;;;;;;;;;;;-3.4;91.66992;101051.1;;;;-75
2022/12/13 18:03:42;;;;;;;;;;;;;;;-3.38;91.69531;101046.3;;;;-74
2022/12/13 18:08:43;;;;;;;;;;;;;;;-3.34;91.74414;101045.5;;;;-74
2022/12/13 18:13:42;;;;;;;;;;;;;;;-3.34;91.75684;101048.7;;;;-75
2022/12/13 18:18:42;;;;;;;;;;;;;;;-3.28;91.71484;101038.8;;;;-75
2022/12/13 18:23:42;;;;;;;;;;;;;;;-3.29;91.64844;101031.1;;;;-75
2022/12/13 18:28:37;;;;;;;18.1;7;;;;;;;;;;;;;-76
2022/12/13 18:28:47;;;;;;;;;;;;;;;-3.32;91.8457;101021.8;;;;-76
2022/12/13 18:33:42;;;;;;;;;;;;;;;-3.3;91.84082;101020;;;;-76
2022/12/13 18:38:43;;;;;;;;;;;;;;;-3.31;91.89258;101010.1;;;;-75
2022/12/13 18:43:42;;;;;;;;;;;;;;;-3.28;91.91797;101005.4;;;;-76
2022/12/13 18:48:42;;;;;;;;;;;;;;;-3.27;91.86816;101000.5;;;;-75
2022/12/13 18:53:42;;;;;;;;;;;;;;;-3.22;91.80371;100995.9;;;;-75
2022/12/13 18:58:36;;;;;;;18;7.5;;;;;;;;;;;;;-75
2022/12/13 18:58:45;;;;;;;;;;;;;;;-3.25;91.91504;100989;;;;-75
2022/12/13 19:03:42;;;;;;;;;;;;;;;-3.19;91.8623;100989.5;;;;-75
2022/12/13 19:08:41;;;;;;;;;;;;;;;-3.23;91.95117;100998.2;;;;-75
2022/12/13 19:13:41;;;;;;;;;;;;;;;-3.2;91.96777;100999.4;;;;-75
2022/12/13 19:18:41;;;;;;;;;;;;;;;-3.22;91.99512;100997.7;;;;-75
2022/12/13 19:23:42;;;;;;;;;;;;;;;-3.24;92.07715;100989.5;;;;-76
2022/12/13 19:28:34;;;;;;;18.3;6.8;;;;;;;;;;;;;-76
2022/12/13 19:28:44;;;;;;;;;;;;;;;-3.24;92.06641;100983.2;;;;-76
2022/12/13 19:33:42;;;;;;;;;;;;;;;-3.26;92.13672;100983.8;;;;-74
2022/12/13 19:38:42;;;;;;;;;;;;;;;-3.25;92.08594;100987;;;;-75
2022/12/13 19:43:42;;;;;;;;;;;;;;;-3.24;92.05371;100979.3;;;;-75
2022/12/13 19:48:41;;;;;;;;;;;;;;;-3.26;92.08203;100978.7;;;;-75
2022/12/13 19:53:42;;;;;;;;;;;;;;;-3.25;92.04297;100972.1;;;;-75
2022/12/13 19:58:32;;;;;;;16.9;6.5;;;;;;;;;;;;;-75
2022/12/13 19:58:42;;;;;;;;;;;;;;;-3.27;92.00684;100955.5;;;;-75
2022/12/13 20:03:42;;;;;;;;;;;;;;;-3.27;92.09082;100954.5;;;;-75
2022/12/13 20:08:42;;;;;;;;;;;;;;;-3.22;91.9209;100936.3;;;;-75
2022/12/13 20:13:42;;;;;;;;;;;;;;;-3.26;92.10449;100929.5;;;;-74
2022/12/13 20:18:41;;;;;;;;;;;;;;;-3.23;92.0791;100921.6;;;;-75
2022/12/13 20:23:41;;;;;;;;;;;;;;;-3.18;91.93066;100921;;;;-75
2022/12/13 20:28:31;;;;;;;16.3;6.8;;;;;;;;;;;;;-75
2022/12/13 20:28:41;;;;;;;;;;;;;;;-3.23;92.06836;100919.8;;;;-74
2022/12/13 20:33:42;;;;;;;;;;;;;;;-3.22;92.04883;100920.4;;;;-75
2022/12/13 20:38:42;;;;;;;;;;;;;;;-3.23;92.13477;100912.2;;;;-75
2022/12/13 20:43:42;;;;;;;;;;;;;;;-3.21;92.10449;100905.3;;;;-74
2022/12/13 20:48:43;;;;;;;;;;;;;;;-3.21;92.0293;100903;;;;-76
2022/12/13 20:53:43;;;;;;;;;;;;;;;-3.22;92.0166;100898.9;;;;-75
2022/12/13 20:58:29;;;;;;;20.9;7.3;;;;;;;;;;;;;-76
2022/12/13 20:58:42;;;;;;;;;;;;;;;-3.23;92.15332;100891.9;;;;-76
2022/12/13 21:03:42;;;;;;;;;;;;;;;-3.25;92.12793;100887.7;;;;-75
2022/12/13 21:08:55;;;;;;;;;;;;;;;-3.27;92.16699;100884.7;;;;-75
2022/12/13 21:13:42;;;;;;;;;;;;;;;-3.25;92.09668;100879.8;;;;-76
2022/12/13 21:18:42;;;;;;;;;;;;;;;-3.25;92.10449;100872.9;;;;-74
2022/12/13 21:23:42;;;;;;;;;;;;;;;-3.27;92.08008;100878.5;;;;-75
2022/12/13 21:28:27;;;;;;;18.8;6.5;;;;;;;;;;;;;-75
2022/12/13 21:28:41;;;;;;;;;;;;;;;-3.29;92.01172;100880.5;;;;-75
2022/12/13 21:33:42;;;;;;;;;;;;;;;-3.32;92.16602;100870.9;;;;-74
2022/12/13 21:38:42;;;;;;;;;;;;;;;-3.31;92.10156;100868.3;;;;-77
2022/12/13 21:43:42;;;;;;;;;;;;;;;-3.32;92.09082;100868;;;;-75
2022/12/13 21:48:42;;;;;;;;;;;;;;;-3.34;92.09766;100860.5;;;;-75
2022/12/13 21:53:42;;;;;;;;;;;;;;;-3.34;92.16211;100847.6;;;;-76
2022/12/13 22:03:41;;;;;;;;;;;;;;;-3.31;92.13379;100830;;;;-74
2022/12/13 22:08:41;;;;;;;;;;;;;;;-3.25;91.97852;100820.4;;;;-74
2022/12/13 22:13:42;;;;;;;;;;;;;;;-3.26;91.98535;100809.3;;;;-75
2022/12/13 22:18:41;;;;;;;;;;;;;;;-3.27;92.1123;100806.1;;;;-74
2022/12/13 22:23:41;;;;;;;;;;;;;;;-3.28;92.14355;100802.2;;;;-76
2022/12/13 22:28:24;;;;;;;14.6;6.3;;;;;;;;;;;;;-75
2022/12/13 22:28:41;;;;;;;;;;;;;;;-3.25;92.13672;100802.2;;;;-74
2022/12/13 22:33:41;;;;;;;;;;;;;;;-3.25;92.05371;100800;;;;-74
2022/12/13 22:38:41;;;;;;;;;;;;;;;-3.25;92.09668;100794.4;;;;-74
2022/12/13 22:43:41;;;;;;;;;;;;;;;-3.24;92.06445;100793.9;;;;-74
2022/12/13 22:48:42;;;;;;;;;;;;;;;-3.24;92.00195;100791.7;;;;-74
2022/12/13 22:53:41;;;;;;;;;;;;;;;-3.28;92.12207;100788.7;;;;-75
2022/12/13 22:58:23;;;;;;;12.1;5.8;;;;;;;;;;;;;-74
2022/12/13 22:58:42;;;;;;;;;;;;;;;-3.3;92.19336;100786.1;;;;-74
2022/12/13 23:03:42;;;;;;;;;;;;;;;-3.3;92.17188;100783.8;;;;-74
2022/12/13 23:08:41;;;;;;;;;;;;;;;-3.33;92.20703;100776.7;;;;-74
2022/12/13 23:13:41;;;;;;;;;;;;;;;-3.35;92.21289;100772.7;;;;-74
2022/12/13 23:18:41;;;;;;;;;;;;;;;-3.35;92.11719;100768.2;;;;-74
2022/12/13 23:23:42;;;;;;;;;;;;;;;-3.38;92.14355;100765;;;;-74
2022/12/13 23:28:21;;;;;;;12.8;5.6;;;;;;;;;;;;;-75
2022/12/13 23:28:42;;;;;;;;;;;;;;;-3.39;92.10742;100755.5;;;;-73
2022/12/13 23:33:42;;;;;;;;;;;;;;;-3.43;92.19531;100756.7;;;;-75
2022/12/13 23:38:42;;;;;;;;;;;;;;;-3.47;92.15332;100752.6;;;;-74
2022/12/13 23:43:42;;;;;;;;;;;;;;;-3.5;92.16895;100745.5;;;;-75
2022/12/13 23:48:42;;;;;;;;;;;;;;;-3.5;91.99023;100744.5;;;;-74
2022/12/13 23:53:42;;;;;;;;;;;;;;;-3.54;92.05273;100746.6;;;;-74
2022/12/13 23:58:19;;;;;;;13.6;5.9;;;;;;;;;;;;;-74
2022/12/13 23:58:42;;;;;;;;;;;;;;;-3.57;92.04688;100743.7;;;;-74
